sensor_id;sensor_type;location;lat;lon;timestamp;P1;durP1;ratioP1;P2;durP2;ratioP2
50291;SDS011;36190;54.980;73.388;2023-07-08T00:00:39;21.10;;;12.55;;
50291;SDS011;36190;54.980;73.388;2023-07-08T00:03:08;24.85;;;14.23;;
50291;SDS011;36190;54.980;73.388;2023-07-08T00:05:36;24.20;;;13.55;;
50291;SDS011;36190;54.980;73.388;2023-07-08T00:08:04;20.70;;;12.18;;
50291;SDS011;36190;54.980;73.388;2023-07-08T00:10:32;21.17;;;12.68;;
50291;SDS011;36190;54.980;73.388;2023-07-08T00:13:00;18.58;;;12.27;;
50291;SDS011;36190;54.980;73.388;2023-07-08T00:15:27;17.92;;;12.35;;
50291;SDS011;36190;54.980;73.388;2023-07-08T00:17:57;20.80;;;12.57;;
50291;SDS011;36190;54.980;73.388;2023-07-08T00:20:28;18.75;;;12.25;;
50291;SDS011;36190;54.980;73.388;2023-07-08T00:22:59;18.88;;;11.73;;
50291;SDS011;36190;54.980;73.388;2023-07-08T00:25:27;19.05;;;11.50;;
50291;SDS011;36190;54.980;73.388;2023-07-08T00:27:54;16.38;;;11.13;;
50291;SDS011;36190;54.980;73.388;2023-07-08T00:30:22;16.77;;;10.98;;
50291;SDS011;36190;54.980;73.388;2023-07-08T00:32:52;21.08;;;11.70;;
50291;SDS011;36190;54.980;73.388;2023-07-08T00:35:24;18.15;;;11.88;;
50291;SDS011;36190;54.980;73.388;2023-07-08T00:37:56;21.00;;;11.63;;
50291;SDS011;36190;54.980;73.388;2023-07-08T00:40:27;19.13;;;11.75;;
50291;SDS011;36190;54.980;73.388;2023-07-08T00:42:55;17.77;;;11.27;;
50291;SDS011;36190;54.980;73.388;2023-07-08T00:45:29;19.02;;;11.45;;
50291;SDS011;36190;54.980;73.388;2023-07-08T00:48:07;17.98;;;11.43;;
50291;SDS011;36190;54.980;73.388;2023-07-08T00:50:42;18.73;;;11.27;;
50291;SDS011;36190;54.980;73.388;2023-07-08T00:53:23;17.73;;;11.63;;
50291;SDS011;36190;54.980;73.388;2023-07-08T00:55:54;19.48;;;12.63;;
50291;SDS011;36190;54.980;73.388;2023-07-08T00:58:25;17.77;;;11.32;;
50291;SDS011;36190;54.980;73.388;2023-07-08T01:00:59;20.90;;;11.85;;
50291;SDS011;36190;54.980;73.388;2023-07-08T01:03:28;17.55;;;11.40;;
50291;SDS011;36190;54.980;73.388;2023-07-08T01:05:56;19.10;;;11.73;;
50291;SDS011;36190;54.980;73.388;2023-07-08T01:08:28;16.98;;;11.10;;
50291;SDS011;36190;54.980;73.388;2023-07-08T01:10:57;17.92;;;11.32;;
50291;SDS011;36190;54.980;73.388;2023-07-08T01:13:28;17.52;;;10.73;;
50291;SDS011;36190;54.980;73.388;2023-07-08T01:16:01;16.35;;;10.93;;
50291;SDS011;36190;54.980;73.388;2023-07-08T01:18:29;17.45;;;11.10;;
50291;SDS011;36190;54.980;73.388;2023-07-08T01:21:01;19.23;;;11.38;;
50291;SDS011;36190;54.980;73.388;2023-07-08T01:23:33;18.00;;;11.35;;
50291;SDS011;36190;54.980;73.388;2023-07-08T01:26:02;18.58;;;11.45;;
50291;SDS011;36190;54.980;73.388;2023-07-08T01:28:30;16.25;;;10.57;;
50291;SDS011;36190;54.980;73.388;2023-07-08T01:30:59;15.50;;;10.15;;
50291;SDS011;36190;54.980;73.388;2023-07-08T01:33:27;19.80;;;11.18;;
50291;SDS011;36190;54.980;73.388;2023-07-08T01:35:54;16.67;;;10.55;;
50291;SDS011;36190;54.980;73.388;2023-07-08T01:38:23;16.92;;;10.27;;
50291;SDS011;36190;54.980;73.388;2023-07-08T01:40:54;17.95;;;10.85;;
50291;SDS011;36190;54.980;73.388;2023-07-08T01:43:24;17.60;;;9.93;;
50291;SDS011;36190;54.980;73.388;2023-07-08T01:45:52;18.52;;;10.70;;
50291;SDS011;36190;54.980;73.388;2023-07-08T01:48:20;17.75;;;11.05;;
50291;SDS011;36190;54.980;73.388;2023-07-08T01:50:51;17.60;;;10.13;;
50291;SDS011;36190;54.980;73.388;2023-07-08T01:53:27;15.03;;;9.73;;
50291;SDS011;36190;54.980;73.388;2023-07-08T01:58:24;15.48;;;10.00;;
50291;SDS011;36190;54.980;73.388;2023-07-08T02:00:53;17.50;;;9.60;;
50291;SDS011;36190;54.980;73.388;2023-07-08T02:03:21;15.25;;;9.75;;
50291;SDS011;36190;54.980;73.388;2023-07-08T02:05:48;15.90;;;10.30;;
50291;SDS011;36190;54.980;73.388;2023-07-08T02:08:16;14.57;;;9.45;;
50291;SDS011;36190;54.980;73.388;2023-07-08T02:10:45;16.35;;;9.30;;
50291;SDS011;36190;54.980;73.388;2023-07-08T02:13:18;15.00;;;9.18;;
50291;SDS011;36190;54.980;73.388;2023-07-08T02:15:45;16.65;;;9.32;;
50291;SDS011;36190;54.980;73.388;2023-07-08T02:18:12;14.57;;;8.80;;
50291;SDS011;36190;54.980;73.388;2023-07-08T02:20:40;21.48;;;9.82;;
50291;SDS011;36190;54.980;73.388;2023-07-08T02:23:08;20.73;;;9.27;;
50291;SDS011;36190;54.980;73.388;2023-07-08T02:25:36;16.48;;;9.75;;
50291;SDS011;36190;54.980;73.388;2023-07-08T02:28:03;22.45;;;10.07;;
50291;SDS011;36190;54.980;73.388;2023-07-08T02:30:32;16.65;;;9.38;;
50291;SDS011;36190;54.980;73.388;2023-07-08T02:32:59;17.50;;;9.80;;
50291;SDS011;36190;54.980;73.388;2023-07-08T02:35:27;19.40;;;10.25;;
50291;SDS011;36190;54.980;73.388;2023-07-08T02:37:56;22.85;;;11.27;;
50291;SDS011;36190;54.980;73.388;2023-07-08T02:40:24;19.65;;;10.88;;
50291;SDS011;36190;54.980;73.388;2023-07-08T02:42:52;19.35;;;10.93;;
50291;SDS011;36190;54.980;73.388;2023-07-08T02:45:20;27.35;;;10.43;;
50291;SDS011;36190;54.980;73.388;2023-07-08T02:47:48;23.30;;;10.63;;
50291;SDS011;36190;54.980;73.388;2023-07-08T02:50:16;20.27;;;10.73;;
50291;SDS011;36190;54.980;73.388;2023-07-08T02:52:44;18.23;;;10.23;;
50291;SDS011;36190;54.980;73.388;2023-07-08T02:55:11;19.20;;;9.38;;
50291;SDS011;36190;54.980;73.388;2023-07-08T02:57:38;16.20;;;9.32;;
50291;SDS011;36190;54.980;73.388;2023-07-08T03:00:06;18.98;;;9.98;;
50291;SDS011;36190;54.980;73.388;2023-07-08T03:02:34;16.27;;;9.25;;
50291;SDS011;36190;54.980;73.388;2023-07-08T03:05:03;14.55;;;8.77;;
50291;SDS011;36190;54.980;73.388;2023-07-08T03:07:30;18.30;;;7.85;;
50291;SDS011;36190;54.980;73.388;2023-07-08T03:09:58;20.90;;;9.40;;
50291;SDS011;36190;54.980;73.388;2023-07-08T03:12:25;13.68;;;8.68;;
50291;SDS011;36190;54.980;73.388;2023-07-08T03:14:53;15.88;;;8.75;;
50291;SDS011;36190;54.980;73.388;2023-07-08T03:17:20;15.30;;;7.97;;
50291;SDS011;36190;54.980;73.388;2023-07-08T03:19:48;18.23;;;7.88;;
50291;SDS011;36190;54.980;73.388;2023-07-08T03:22:17;18.23;;;7.88;;
50291;SDS011;36190;54.980;73.388;2023-07-08T03:24:44;15.85;;;8.20;;
50291;SDS011;36190;54.980;73.388;2023-07-08T03:27:13;17.90;;;8.20;;
50291;SDS011;36190;54.980;73.388;2023-07-08T03:29:41;15.55;;;7.78;;
50291;SDS011;36190;54.980;73.388;2023-07-08T03:32:08;21.92;;;7.47;;
50291;SDS011;36190;54.980;73.388;2023-07-08T03:34:37;24.92;;;6.65;;
50291;SDS011;36190;54.980;73.388;2023-07-08T03:37:05;11.75;;;6.10;;
50291;SDS011;36190;54.980;73.388;2023-07-08T03:39:34;13.88;;;6.75;;
50291;SDS011;36190;54.980;73.388;2023-07-08T03:42:01;13.85;;;6.68;;
50291;SDS011;36190;54.980;73.388;2023-07-08T03:44:29;14.18;;;6.55;;
50291;SDS011;36190;54.980;73.388;2023-07-08T03:46:57;17.23;;;6.97;;
50291;SDS011;36190;54.980;73.388;2023-07-08T03:49:24;15.27;;;6.93;;
50291;SDS011;36190;54.980;73.388;2023-07-08T03:51:52;13.93;;;6.70;;
50291;SDS011;36190;54.980;73.388;2023-07-08T03:54:21;17.00;;;6.90;;
50291;SDS011;36190;54.980;73.388;2023-07-08T03:56:51;13.70;;;6.20;;
50291;SDS011;36190;54.980;73.388;2023-07-08T03:59:19;13.13;;;6.40;;
50291;SDS011;36190;54.980;73.388;2023-07-08T04:01:46;12.48;;;5.63;;
50291;SDS011;36190;54.980;73.388;2023-07-08T04:04:15;11.40;;;6.45;;
50291;SDS011;36190;54.980;73.388;2023-07-08T04:06:42;13.02;;;6.13;;
50291;SDS011;36190;54.980;73.388;2023-07-08T04:09:10;15.05;;;6.35;;
50291;SDS011;36190;54.980;73.388;2023-07-08T04:11:37;15.52;;;5.85;;
50291;SDS011;36190;54.980;73.388;2023-07-08T04:14:07;15.90;;;5.60;;
50291;SDS011;36190;54.980;73.388;2023-07-08T04:16:42;12.80;;;5.88;;
50291;SDS011;36190;54.980;73.388;2023-07-08T04:19:14;17.20;;;6.13;;
50291;SDS011;36190;54.980;73.388;2023-07-08T04:21:42;12.85;;;5.43;;
50291;SDS011;36190;54.980;73.388;2023-07-08T04:24:11;18.55;;;6.20;;
50291;SDS011;36190;54.980;73.388;2023-07-08T04:26:39;9.40;;;4.55;;
50291;SDS011;36190;54.980;73.388;2023-07-08T04:29:10;11.15;;;5.00;;
50291;SDS011;36190;54.980;73.388;2023-07-08T04:31:39;13.30;;;5.25;;
50291;SDS011;36190;54.980;73.388;2023-07-08T04:34:07;8.32;;;4.60;;
50291;SDS011;36190;54.980;73.388;2023-07-08T04:36:35;12.77;;;5.07;;
50291;SDS011;36190;54.980;73.388;2023-07-08T04:39:03;13.45;;;5.20;;
50291;SDS011;36190;54.980;73.388;2023-07-08T04:41:32;10.45;;;5.15;;
50291;SDS011;36190;54.980;73.388;2023-07-08T04:44:00;10.05;;;4.43;;
50291;SDS011;36190;54.980;73.388;2023-07-08T04:46:32;9.65;;;4.68;;
50291;SDS011;36190;54.980;73.388;2023-07-08T04:49:04;9.07;;;4.30;;
50291;SDS011;36190;54.980;73.388;2023-07-08T04:51:32;10.80;;;5.00;;
50291;SDS011;36190;54.980;73.388;2023-07-08T04:53:59;12.32;;;5.35;;
50291;SDS011;36190;54.980;73.388;2023-07-08T04:56:34;13.82;;;5.25;;
50291;SDS011;36190;54.980;73.388;2023-07-08T04:59:04;12.07;;;4.35;;
50291;SDS011;36190;54.980;73.388;2023-07-08T05:01:33;10.50;;;4.80;;
50291;SDS011;36190;54.980;73.388;2023-07-08T05:04:00;13.00;;;5.00;;
50291;SDS011;36190;54.980;73.388;2023-07-08T05:06:30;13.82;;;5.32;;
50291;SDS011;36190;54.980;73.388;2023-07-08T05:08:58;18.02;;;5.30;;
50291;SDS011;36190;54.980;73.388;2023-07-08T05:11:26;13.00;;;4.35;;
50291;SDS011;36190;54.980;73.388;2023-07-08T05:13:53;15.70;;;6.22;;
50291;SDS011;36190;54.980;73.388;2023-07-08T05:16:21;12.88;;;4.68;;
50291;SDS011;36190;54.980;73.388;2023-07-08T05:18:50;12.07;;;4.60;;
50291;SDS011;36190;54.980;73.388;2023-07-08T05:21:18;12.90;;;4.63;;
50291;SDS011;36190;54.980;73.388;2023-07-08T05:23:46;11.00;;;4.25;;
50291;SDS011;36190;54.980;73.388;2023-07-08T05:26:14;10.07;;;4.50;;
50291;SDS011;36190;54.980;73.388;2023-07-08T05:28:42;12.85;;;4.60;;
50291;SDS011;36190;54.980;73.388;2023-07-08T05:31:09;14.55;;;4.70;;
50291;SDS011;36190;54.980;73.388;2023-07-08T05:33:37;12.02;;;4.53;;
50291;SDS011;36190;54.980;73.388;2023-07-08T05:36:06;17.08;;;5.20;;
50291;SDS011;36190;54.980;73.388;2023-07-08T05:38:33;11.02;;;4.65;;
50291;SDS011;36190;54.980;73.388;2023-07-08T05:41:01;11.15;;;4.82;;
50291;SDS011;36190;54.980;73.388;2023-07-08T05:43:28;9.55;;;4.40;;
50291;SDS011;36190;54.980;73.388;2023-07-08T05:45:58;17.23;;;5.40;;
50291;SDS011;36190;54.980;73.388;2023-07-08T05:48:26;10.48;;;4.72;;
50291;SDS011;36190;54.980;73.388;2023-07-08T05:50:55;9.13;;;4.43;;
50291;SDS011;36190;54.980;73.388;2023-07-08T05:53:24;12.75;;;5.03;;
50291;SDS011;36190;54.980;73.388;2023-07-08T05:55:53;11.07;;;5.05;;
50291;SDS011;36190;54.980;73.388;2023-07-08T05:58:21;9.32;;;4.20;;
50291;SDS011;36190;54.980;73.388;2023-07-08T06:00:54;9.05;;;4.57;;
50291;SDS011;36190;54.980;73.388;2023-07-08T06:03:22;9.63;;;4.13;;
50291;SDS011;36190;54.980;73.388;2023-07-08T06:05:49;10.48;;;4.30;;
50291;SDS011;36190;54.980;73.388;2023-07-08T06:08:17;10.30;;;3.80;;
50291;SDS011;36190;54.980;73.388;2023-07-08T06:10:45;12.85;;;5.03;;
50291;SDS011;36190;54.980;73.388;2023-07-08T06:13:13;9.70;;;4.15;;
50291;SDS011;36190;54.980;73.388;2023-07-08T06:15:41;9.57;;;4.32;;
50291;SDS011;36190;54.980;73.388;2023-07-08T06:18:08;9.13;;;3.88;;
50291;SDS011;36190;54.980;73.388;2023-07-08T06:20:36;11.75;;;4.25;;
50291;SDS011;36190;54.980;73.388;2023-07-08T06:23:03;9.32;;;4.13;;
50291;SDS011;36190;54.980;73.388;2023-07-08T06:25:31;8.90;;;3.90;;
50291;SDS011;36190;54.980;73.388;2023-07-08T06:28:00;11.40;;;4.25;;
50291;SDS011;36190;54.980;73.388;2023-07-08T06:30:27;9.02;;;3.97;;
50291;SDS011;36190;54.980;73.388;2023-07-08T06:32:55;8.60;;;3.70;;
50291;SDS011;36190;54.980;73.388;2023-07-08T06:35:22;12.18;;;4.78;;
50291;SDS011;36190;54.980;73.388;2023-07-08T06:37:49;9.77;;;4.07;;
50291;SDS011;36190;54.980;73.388;2023-07-08T06:40:17;8.68;;;3.90;;
50291;SDS011;36190;54.980;73.388;2023-07-08T06:42:44;10.40;;;3.80;;
50291;SDS011;36190;54.980;73.388;2023-07-08T06:45:13;9.82;;;4.25;;
50291;SDS011;36190;54.980;73.388;2023-07-08T06:47:41;8.70;;;3.72;;
50291;SDS011;36190;54.980;73.388;2023-07-08T06:50:08;10.43;;;4.50;;
50291;SDS011;36190;54.980;73.388;2023-07-08T06:52:36;8.68;;;4.20;;
50291;SDS011;36190;54.980;73.388;2023-07-08T06:55:04;8.63;;;4.40;;
50291;SDS011;36190;54.980;73.388;2023-07-08T06:57:33;11.15;;;4.38;;
50291;SDS011;36190;54.980;73.388;2023-07-08T07:00:00;8.93;;;4.32;;
50291;SDS011;36190;54.980;73.388;2023-07-08T07:02:30;9.18;;;4.55;;
50291;SDS011;36190;54.980;73.388;2023-07-08T07:04:57;10.00;;;4.00;;
50291;SDS011;36190;54.980;73.388;2023-07-08T07:07:24;8.88;;;4.00;;
50291;SDS011;36190;54.980;73.388;2023-07-08T07:09:52;9.20;;;3.85;;
50291;SDS011;36190;54.980;73.388;2023-07-08T07:12:20;8.82;;;4.18;;
50291;SDS011;36190;54.980;73.388;2023-07-08T07:14:48;11.63;;;4.20;;
50291;SDS011;36190;54.980;73.388;2023-07-08T07:17:17;10.02;;;4.38;;
50291;SDS011;36190;54.980;73.388;2023-07-08T07:19:46;12.52;;;4.88;;
50291;SDS011;36190;54.980;73.388;2023-07-08T07:22:14;12.65;;;4.18;;
50291;SDS011;36190;54.980;73.388;2023-07-08T07:24:42;10.75;;;4.30;;
50291;SDS011;36190;54.980;73.388;2023-07-08T07:27:09;15.27;;;4.60;;
50291;SDS011;36190;54.980;73.388;2023-07-08T07:29:41;8.68;;;4.13;;
50291;SDS011;36190;54.980;73.388;2023-07-08T07:32:10;8.02;;;4.25;;
50291;SDS011;36190;54.980;73.388;2023-07-08T07:34:38;20.40;;;5.30;;
50291;SDS011;36190;54.980;73.388;2023-07-08T07:37:07;9.70;;;4.60;;
50291;SDS011;36190;54.980;73.388;2023-07-08T07:39:38;8.07;;;4.45;;
50291;SDS011;36190;54.980;73.388;2023-07-08T07:42:05;9.18;;;4.32;;
50291;SDS011;36190;54.980;73.388;2023-07-08T07:44:33;11.50;;;4.72;;
50291;SDS011;36190;54.980;73.388;2023-07-08T07:47:01;9.55;;;4.55;;
50291;SDS011;36190;54.980;73.388;2023-07-08T07:49:28;10.40;;;4.47;;
50291;SDS011;36190;54.980;73.388;2023-07-08T07:51:56;7.45;;;3.83;;
50291;SDS011;36190;54.980;73.388;2023-07-08T07:54:25;13.55;;;4.38;;
50291;SDS011;36190;54.980;73.388;2023-07-08T07:56:52;11.00;;;4.60;;
50291;SDS011;36190;54.980;73.388;2023-07-08T07:59:20;9.60;;;4.28;;
50291;SDS011;36190;54.980;73.388;2023-07-08T08:01:48;9.70;;;4.13;;
50291;SDS011;36190;54.980;73.388;2023-07-08T08:04:15;13.07;;;4.43;;
50291;SDS011;36190;54.980;73.388;2023-07-08T08:06:43;8.35;;;4.07;;
50291;SDS011;36190;54.980;73.388;2023-07-08T08:09:10;10.13;;;5.05;;
50291;SDS011;36190;54.980;73.388;2023-07-08T08:11:39;10.07;;;4.63;;
50291;SDS011;36190;54.980;73.388;2023-07-08T08:14:06;12.98;;;4.40;;
50291;SDS011;36190;54.980;73.388;2023-07-08T08:16:33;8.88;;;4.20;;
50291;SDS011;36190;54.980;73.388;2023-07-08T08:19:01;10.45;;;4.32;;
50291;SDS011;36190;54.980;73.388;2023-07-08T08:21:28;8.85;;;4.50;;
50291;SDS011;36190;54.980;73.388;2023-07-08T08:23:55;12.63;;;5.18;;
50291;SDS011;36190;54.980;73.388;2023-07-08T08:26:24;9.75;;;4.57;;
50291;SDS011;36190;54.980;73.388;2023-07-08T08:28:52;10.00;;;4.60;;
50291;SDS011;36190;54.980;73.388;2023-07-08T08:31:20;9.52;;;4.35;;
50291;SDS011;36190;54.980;73.388;2023-07-08T08:33:47;8.95;;;4.65;;
50291;SDS011;36190;54.980;73.388;2023-07-08T08:36:14;9.30;;;4.68;;
50291;SDS011;36190;54.980;73.388;2023-07-08T08:38:42;8.85;;;4.68;;
50291;SDS011;36190;54.980;73.388;2023-07-08T08:41:10;8.80;;;4.50;;
50291;SDS011;36190;54.980;73.388;2023-07-08T08:43:40;12.13;;;4.47;;
50291;SDS011;36190;54.980;73.388;2023-07-08T08:46:11;12.73;;;5.18;;
50291;SDS011;36190;54.980;73.388;2023-07-08T08:48:48;11.68;;;5.63;;
50291;SDS011;36190;54.980;73.388;2023-07-08T08:51:20;8.35;;;4.60;;
50291;SDS011;36190;54.980;73.388;2023-07-08T08:53:48;9.25;;;4.47;;
50291;SDS011;36190;54.980;73.388;2023-07-08T08:56:18;9.77;;;4.70;;
50291;SDS011;36190;54.980;73.388;2023-07-08T08:58:50;11.98;;;4.70;;
50291;SDS011;36190;54.980;73.388;2023-07-08T09:01:26;9.48;;;4.75;;
50291;SDS011;36190;54.980;73.388;2023-07-08T09:03:55;12.10;;;4.85;;
50291;SDS011;36190;54.980;73.388;2023-07-08T09:06:28;9.27;;;4.70;;
50291;SDS011;36190;54.980;73.388;2023-07-08T09:09:00;9.38;;;4.28;;
50291;SDS011;36190;54.980;73.388;2023-07-08T09:11:36;10.75;;;4.63;;
50291;SDS011;36190;54.980;73.388;2023-07-08T09:14:15;9.07;;;4.60;;
50291;SDS011;36190;54.980;73.388;2023-07-08T09:16:50;9.27;;;5.05;;
50291;SDS011;36190;54.980;73.388;2023-07-08T09:19:25;12.55;;;4.60;;
50291;SDS011;36190;54.980;73.388;2023-07-08T09:21:57;13.30;;;4.75;;
50291;SDS011;36190;54.980;73.388;2023-07-08T09:24:31;8.02;;;4.13;;
50291;SDS011;36190;54.980;73.388;2023-07-08T09:27:04;8.75;;;4.43;;
50291;SDS011;36190;54.980;73.388;2023-07-08T09:29:32;8.60;;;4.35;;
50291;SDS011;36190;54.980;73.388;2023-07-08T09:32:03;8.40;;;4.28;;
50291;SDS011;36190;54.980;73.388;2023-07-08T09:34:41;10.20;;;4.55;;
50291;SDS011;36190;54.980;73.388;2023-07-08T09:37:21;10.32;;;4.32;;
50291;SDS011;36190;54.980;73.388;2023-07-08T09:39:51;8.45;;;4.10;;
50291;SDS011;36190;54.980;73.388;2023-07-08T09:42:19;9.10;;;4.07;;
50291;SDS011;36190;54.980;73.388;2023-07-08T09:44:48;9.50;;;4.70;;
50291;SDS011;36190;54.980;73.388;2023-07-08T09:47:26;10.13;;;4.15;;
50291;SDS011;36190;54.980;73.388;2023-07-08T09:49:58;9.40;;;4.63;;
50291;SDS011;36190;54.980;73.388;2023-07-08T09:52:25;10.35;;;4.32;;
50291;SDS011;36190;54.980;73.388;2023-07-08T09:54:55;10.38;;;4.53;;
50291;SDS011;36190;54.980;73.388;2023-07-08T09:57:25;11.98;;;4.53;;
50291;SDS011;36190;54.980;73.388;2023-07-08T09:59:56;10.52;;;4.55;;
50291;SDS011;36190;54.980;73.388;2023-07-08T10:02:29;10.43;;;4.57;;
50291;SDS011;36190;54.980;73.388;2023-07-08T10:04:59;9.38;;;4.32;;
50291;SDS011;36190;54.980;73.388;2023-07-08T10:07:29;12.32;;;4.65;;
50291;SDS011;36190;54.980;73.388;2023-07-08T10:09:59;10.75;;;5.20;;
50291;SDS011;36190;54.980;73.388;2023-07-08T10:12:31;10.98;;;4.38;;
50291;SDS011;36190;54.980;73.388;2023-07-08T10:15:00;8.90;;;4.30;;
50291;SDS011;36190;54.980;73.388;2023-07-08T10:17:35;7.57;;;4.32;;
50291;SDS011;36190;54.980;73.388;2023-07-08T10:20:10;10.52;;;4.93;;
50291;SDS011;36190;54.980;73.388;2023-07-08T10:22:41;9.05;;;4.78;;
50291;SDS011;36190;54.980;73.388;2023-07-08T10:25:24;10.40;;;4.72;;
50291;SDS011;36190;54.980;73.388;2023-07-08T10:28:01;10.90;;;4.75;;
50291;SDS011;36190;54.980;73.388;2023-07-08T10:30:58;10.13;;;4.90;;
50291;SDS011;36190;54.980;73.388;2023-07-08T10:33:39;12.57;;;5.30;;
50291;SDS011;36190;54.980;73.388;2023-07-08T10:36:22;10.93;;;4.88;;
50291;SDS011;36190;54.980;73.388;2023-07-08T10:39:12;8.63;;;4.30;;
50291;SDS011;36190;54.980;73.388;2023-07-08T10:42:01;14.73;;;5.28;;
50291;SDS011;36190;54.980;73.388;2023-07-08T10:44:38;10.60;;;4.45;;
50291;SDS011;36190;54.980;73.388;2023-07-08T10:47:23;10.00;;;4.53;;
50291;SDS011;36190;54.980;73.388;2023-07-08T10:50:03;9.82;;;4.80;;
50291;SDS011;36190;54.980;73.388;2023-07-08T10:52:48;9.35;;;4.90;;
50291;SDS011;36190;54.980;73.388;2023-07-08T10:55:32;11.73;;;4.32;;
50291;SDS011;36190;54.980;73.388;2023-07-08T11:01:05;11.02;;;5.20;;
50291;SDS011;36190;54.980;73.388;2023-07-08T11:06:48;8.02;;;4.60;;
50291;SDS011;36190;54.980;73.388;2023-07-08T11:09:20;10.05;;;4.43;;
50291;SDS011;36190;54.980;73.388;2023-07-08T11:11:53;8.40;;;4.60;;
50291;SDS011;36190;54.980;73.388;2023-07-08T11:14:26;16.08;;;4.82;;
50291;SDS011;36190;54.980;73.388;2023-07-08T11:17:02;10.10;;;4.82;;
50291;SDS011;36190;54.980;73.388;2023-07-08T11:19:42;9.65;;;4.28;;
50291;SDS011;36190;54.980;73.388;2023-07-08T11:22:16;8.95;;;4.20;;
50291;SDS011;36190;54.980;73.388;2023-07-08T11:24:47;8.85;;;4.03;;
50291;SDS011;36190;54.980;73.388;2023-07-08T11:27:19;9.40;;;4.18;;
50291;SDS011;36190;54.980;73.388;2023-07-08T11:29:52;8.32;;;4.10;;
50291;SDS011;36190;54.980;73.388;2023-07-08T11:32:25;10.93;;;4.43;;
50291;SDS011;36190;54.980;73.388;2023-07-08T11:34:56;8.05;;;4.20;;
50291;SDS011;36190;54.980;73.388;2023-07-08T11:37:27;6.95;;;3.78;;
50291;SDS011;36190;54.980;73.388;2023-07-08T11:39:57;8.95;;;4.47;;
50291;SDS011;36190;54.980;73.388;2023-07-08T11:42:44;7.68;;;3.78;;
50291;SDS011;36190;54.980;73.388;2023-07-08T11:45:21;11.75;;;4.30;;
50291;SDS011;36190;54.980;73.388;2023-07-08T11:47:52;8.15;;;3.97;;
50291;SDS011;36190;54.980;73.388;2023-07-08T11:50:28;7.85;;;3.80;;
50291;SDS011;36190;54.980;73.388;2023-07-08T11:53:00;15.20;;;4.45;;
50291;SDS011;36190;54.980;73.388;2023-07-08T11:55:34;8.15;;;4.00;;
50291;SDS011;36190;54.980;73.388;2023-07-08T11:58:06;9.15;;;3.72;;
50291;SDS011;36190;54.980;73.388;2023-07-08T12:00:35;8.60;;;3.80;;
50291;SDS011;36190;54.980;73.388;2023-07-08T12:03:17;8.82;;;3.55;;
50291;SDS011;36190;54.980;73.388;2023-07-08T12:05:47;13.17;;;4.20;;
50291;SDS011;36190;54.980;73.388;2023-07-08T12:08:17;12.57;;;4.13;;
50291;SDS011;36190;54.980;73.388;2023-07-08T12:10:46;7.18;;;3.63;;
50291;SDS011;36190;54.980;73.388;2023-07-08T12:13:17;10.93;;;3.92;;
50291;SDS011;36190;54.980;73.388;2023-07-08T12:15:46;8.25;;;3.67;;
50291;SDS011;36190;54.980;73.388;2023-07-08T12:18:17;8.85;;;4.03;;
50291;SDS011;36190;54.980;73.388;2023-07-08T12:20:49;8.20;;;4.00;;
50291;SDS011;36190;54.980;73.388;2023-07-08T12:23:21;8.25;;;3.53;;
50291;SDS011;36190;54.980;73.388;2023-07-08T12:25:50;8.63;;;3.60;;
50291;SDS011;36190;54.980;73.388;2023-07-08T12:28:20;7.82;;;3.58;;
50291;SDS011;36190;54.980;73.388;2023-07-08T12:30:49;8.45;;;3.33;;
50291;SDS011;36190;54.980;73.388;2023-07-08T12:33:22;10.35;;;3.63;;
50291;SDS011;36190;54.980;73.388;2023-07-08T12:35:54;6.32;;;3.17;;
50291;SDS011;36190;54.980;73.388;2023-07-08T12:38:26;11.85;;;4.00;;
50291;SDS011;36190;54.980;73.388;2023-07-08T12:40:55;7.80;;;3.67;;
50291;SDS011;36190;54.980;73.388;2023-07-08T12:43:25;10.15;;;4.15;;
50291;SDS011;36190;54.980;73.388;2023-07-08T12:45:52;7.70;;;3.35;;
50291;SDS011;36190;54.980;73.388;2023-07-08T12:48:20;8.55;;;3.03;;
50291;SDS011;36190;54.980;73.388;2023-07-08T12:50:47;6.43;;;3.03;;
50291;SDS011;36190;54.980;73.388;2023-07-08T12:53:15;8.48;;;3.50;;
50291;SDS011;36190;54.980;73.388;2023-07-08T12:55:44;6.32;;;3.10;;
50291;SDS011;36190;54.980;73.388;2023-07-08T12:58:13;6.88;;;3.00;;
50291;SDS011;36190;54.980;73.388;2023-07-08T13:00:52;4.32;;;2.78;;
50291;SDS011;36190;54.980;73.388;2023-07-08T13:03:20;5.30;;;3.10;;
50291;SDS011;36190;54.980;73.388;2023-07-08T13:05:51;7.85;;;3.30;;
50291;SDS011;36190;54.980;73.388;2023-07-08T13:08:20;8.73;;;3.35;;
50291;SDS011;36190;54.980;73.388;2023-07-08T13:10:52;10.48;;;3.95;;
50291;SDS011;36190;54.980;73.388;2023-07-08T13:13:23;7.85;;;3.40;;
50291;SDS011;36190;54.980;73.388;2023-07-08T13:15:54;6.95;;;3.38;;
50291;SDS011;36190;54.980;73.388;2023-07-08T13:18:32;9.00;;;3.30;;
50291;SDS011;36190;54.980;73.388;2023-07-08T13:21:00;8.18;;;2.80;;
50291;SDS011;36190;54.980;73.388;2023-07-08T13:23:30;8.13;;;3.22;;
50291;SDS011;36190;54.980;73.388;2023-07-08T13:25:59;12.65;;;3.50;;
50291;SDS011;36190;54.980;73.388;2023-07-08T13:28:27;5.80;;;2.83;;
50291;SDS011;36190;54.980;73.388;2023-07-08T13:30:56;5.90;;;2.70;;
50291;SDS011;36190;54.980;73.388;2023-07-08T13:33:28;8.05;;;3.20;;
50291;SDS011;36190;54.980;73.388;2023-07-08T13:35:57;7.93;;;3.13;;
50291;SDS011;36190;54.980;73.388;2023-07-08T13:38:30;6.32;;;3.05;;
50291;SDS011;36190;54.980;73.388;2023-07-08T13:43:30;9.73;;;3.28;;
50291;SDS011;36190;54.980;73.388;2023-07-08T13:45:58;6.70;;;3.67;;
50291;SDS011;36190;54.980;73.388;2023-07-08T13:48:27;11.50;;;3.70;;
50291;SDS011;36190;54.980;73.388;2023-07-08T13:50:56;5.68;;;3.03;;
50291;SDS011;36190;54.980;73.388;2023-07-08T13:53:32;7.18;;;3.28;;
50291;SDS011;36190;54.980;73.388;2023-07-08T13:56:14;7.72;;;3.15;;
50291;SDS011;36190;54.980;73.388;2023-07-08T13:58:47;8.52;;;3.50;;
50291;SDS011;36190;54.980;73.388;2023-07-08T14:01:18;8.75;;;3.97;;
50291;SDS011;36190;54.980;73.388;2023-07-08T14:03:47;8.75;;;3.72;;
50291;SDS011;36190;54.980;73.388;2023-07-08T14:06:15;6.05;;;3.20;;
50291;SDS011;36190;54.980;73.388;2023-07-08T14:08:44;7.25;;;3.13;;
50291;SDS011;36190;54.980;73.388;2023-07-08T14:11:11;9.35;;;3.60;;
50291;SDS011;36190;54.980;73.388;2023-07-08T14:13:40;8.75;;;3.30;;
50291;SDS011;36190;54.980;73.388;2023-07-08T14:16:23;13.82;;;4.00;;
50291;SDS011;36190;54.980;73.388;2023-07-08T14:18:52;10.30;;;4.05;;
50291;SDS011;36190;54.980;73.388;2023-07-08T14:21:20;8.27;;;3.88;;
50291;SDS011;36190;54.980;73.388;2023-07-08T14:23:48;12.13;;;3.97;;
50291;SDS011;36190;54.980;73.388;2023-07-08T14:26:15;10.95;;;4.05;;
50291;SDS011;36190;54.980;73.388;2023-07-08T14:28:44;12.32;;;3.97;;
50291;SDS011;36190;54.980;73.388;2023-07-08T14:31:12;8.50;;;3.63;;
50291;SDS011;36190;54.980;73.388;2023-07-08T14:33:41;9.95;;;4.63;;
50291;SDS011;36190;54.980;73.388;2023-07-08T14:36:09;14.18;;;5.45;;
50291;SDS011;36190;54.980;73.388;2023-07-08T14:38:37;10.73;;;4.00;;
50291;SDS011;36190;54.980;73.388;2023-07-08T14:41:05;11.05;;;4.25;;
50291;SDS011;36190;54.980;73.388;2023-07-08T14:43:33;9.93;;;4.50;;
50291;SDS011;36190;54.980;73.388;2023-07-08T14:46:03;7.70;;;4.00;;
50291;SDS011;36190;54.980;73.388;2023-07-08T14:48:32;9.45;;;4.40;;
50291;SDS011;36190;54.980;73.388;2023-07-08T14:50:59;10.63;;;4.60;;